createdAt,value
2023-03-29T00:04:51.997Z,64
2023-03-29T00:19:52.025Z,64
2023-03-29T00:34:51.972Z,65
2023-03-29T00:49:51.998Z,65
2023-03-29T01:04:51.924Z,66
2023-03-29T01:19:51.955Z,66
2023-03-29T01:34:51.908Z,67
2023-03-29T01:49:51.923Z,66
2023-03-29T02:04:51.850Z,67
2023-03-29T02:19:51.892Z,67
2023-03-29T02:34:51.825Z,68
2023-03-29T02:49:51.868Z,67
2023-03-29T03:04:51.810Z,66
2023-03-29T03:19:51.818Z,66
2023-03-29T03:34:51.755Z,66
2023-03-29T03:49:51.786Z,66
2023-03-29T04:04:51.716Z,66
2023-03-29T04:19:51.701Z,66
2023-03-29T04:34:51.710Z,67
2023-03-29T04:49:51.730Z,67
2023-03-29T05:04:51.650Z,68
2023-03-29T05:19:51.651Z,68
2023-03-29T05:34:51.642Z,68
2023-03-29T05:49:51.631Z,68
2023-03-29T06:19:51.646Z,68
2023-03-29T06:34:51.570Z,68
2023-03-29T07:04:51.564Z,68
2023-03-29T07:19:51.712Z,68
2023-03-29T07:34:51.504Z,68
2023-03-29T07:49:51.520Z,68
2023-03-29T08:04:51.490Z,68
2023-03-29T08:19:52.444Z,68
2023-03-29T08:34:51.428Z,67
2023-03-29T08:49:51.421Z,67
2023-03-29T09:04:51.373Z,66
2023-03-29T09:19:51.373Z,64
2023-03-29T09:34:51.311Z,63
2023-03-29T09:49:51.337Z,62
2023-03-29T10:04:51.278Z,62
2023-03-29T10:19:51.279Z,61
2023-03-29T10:34:51.284Z,61
2023-03-29T10:49:51.796Z,59
2023-03-29T11:04:51.172Z,59
2023-03-29T11:19:51.188Z,59
2023-03-29T11:34:51.141Z,58
2023-03-29T11:49:51.149Z,58
2023-03-29T12:04:51.104Z,57
2023-03-29T12:19:51.091Z,57
2023-03-29T12:34:51.035Z,56
2023-03-29T12:49:51.040Z,56
2023-03-29T13:04:51.088Z,56
2023-03-29T13:19:51.013Z,56
2023-03-29T13:34:50.964Z,55
2023-03-29T13:49:51.742Z,54
2023-03-29T14:04:50.920Z,53
2023-03-29T14:19:50.910Z,53
2023-03-29T14:34:51.008Z,53
2023-03-29T14:49:50.884Z,53
2023-03-29T15:04:50.807Z,53
2023-03-29T15:19:50.826Z,53
2023-03-29T15:34:50.770Z,53
2023-03-29T15:49:50.825Z,53
2023-03-29T16:04:50.699Z,53
2023-03-29T16:19:50.753Z,53
2023-03-29T16:34:50.706Z,54
2023-03-29T16:49:50.693Z,54
2023-03-29T17:04:50.665Z,55
2023-03-29T17:19:50.618Z,55
2023-03-29T17:34:50.573Z,55
2023-03-29T17:49:50.564Z,55
2023-03-29T18:04:50.501Z,55
2023-03-29T18:19:50.536Z,56
2023-03-29T18:34:50.462Z,56
2023-03-29T18:49:50.462Z,56
2023-03-29T19:04:50.400Z,57
2023-03-29T19:19:50.421Z,57
2023-03-29T19:34:50.370Z,58
2023-03-29T19:49:50.365Z,58
2023-03-29T20:04:50.297Z,59
2023-03-29T20:19:50.328Z,59
2023-03-29T20:34:50.281Z,60
2023-03-29T20:49:50.281Z,60
2023-03-29T21:04:50.243Z,60
2023-03-29T21:19:50.233Z,61
2023-03-29T21:34:50.150Z,62
2023-03-29T21:49:50.177Z,62
2023-03-29T22:04:50.129Z,62
2023-03-29T22:19:50.152Z,63
2023-03-29T22:34:50.072Z,63
2023-03-29T22:49:50.113Z,64
2023-03-29T23:04:50.169Z,66
2023-03-29T23:19:50.069Z,68
2023-03-29T23:34:50.014Z,70
2023-03-29T23:49:50.003Z,72
